sensor_id;sensor_type;location;lat;lon;timestamp;P1;durP1;ratioP1;P2;durP2;ratioP2
30458;SDS011;17254;50.976;7.034;2023-02-28T00:00:04;8.88;;;6.88;;
30458;SDS011;17254;50.976;7.034;2023-02-28T00:00:15;9.62;;;7.04;;
30458;SDS011;17254;50.976;7.034;2023-02-28T00:00:21;9.03;;;6.80;;
30458;SDS011;17254;50.976;7.034;2023-02-28T00:00:28;8.70;;;6.80;;
30458;SDS011;17254;50.976;7.034;2023-02-28T00:00:34;8.13;;;6.65;;
30458;SDS011;17254;50.976;7.034;2023-02-28T00:00:41;7.58;;;6.62;;
30458;SDS011;17254;50.976;7.034;2023-02-28T00:00:48;7.23;;;6.53;;
30458;SDS011;17254;50.976;7.034;2023-02-28T00:00:54;7.20;;;6.50;;
30458;SDS011;17254;50.976;7.034;2023-02-28T00:00:59;6.97;;;6.27;;
30458;SDS011;17254;50.976;7.034;2023-02-28T00:01:05;7.22;;;6.25;;
30458;SDS011;17254;50.976;7.034;2023-02-28T00:01:12;6.88;;;6.13;;
30458;SDS011;17254;50.976;7.034;2023-02-28T00:01:18;7.17;;;6.23;;
30458;SDS011;17254;50.976;7.034;2023-02-28T00:01:25;6.92;;;6.16;;
30458;SDS011;17254;50.976;7.034;2023-02-28T00:01:32;6.90;;;6.13;;
30458;SDS011;17254;50.976;7.034;2023-02-28T00:01:38;6.82;;;6.13;;
30458;SDS011;17254;50.976;7.034;2023-02-28T00:01:44;6.80;;;6.10;;
30458;SDS011;17254;50.976;7.034;2023-02-28T00:01:50;6.90;;;6.20;;
30458;SDS011;17254;50.976;7.034;2023-02-28T00:01:56;7.03;;;6.28;;
30458;SDS011;17254;50.976;7.034;2023-02-28T00:02:02;7.07;;;6.38;;
30458;SDS011;17254;50.976;7.034;2023-02-28T00:02:08;7.10;;;6.40;;
30458;SDS011;17254;50.976;7.034;2023-02-28T00:02:14;7.26;;;6.42;;
30458;SDS011;17254;50.976;7.034;2023-02-28T00:02:22;7.27;;;6.50;;
30458;SDS011;17254;50.976;7.034;2023-02-28T00:02:28;7.15;;;6.40;;
30458;SDS011;17254;50.976;7.034;2023-02-28T00:02:34;7.18;;;6.45;;
30458;SDS011;17254;50.976;7.034;2023-02-28T00:02:40;6.95;;;6.15;;
30458;SDS011;17254;50.976;7.034;2023-02-28T00:02:47;6.66;;;5.98;;
30458;SDS011;17254;50.976;7.034;2023-02-28T00:02:55;6.60;;;5.87;;
30458;SDS011;17254;50.976;7.034;2023-02-28T00:03:01;6.95;;;5.90;;
30458;SDS011;17254;50.976;7.034;2023-02-28T00:03:08;8.00;;;6.18;;
30458;SDS011;17254;50.976;7.034;2023-02-28T00:03:14;8.75;;;6.65;;
30458;SDS011;17254;50.976;7.034;2023-02-28T00:03:20;8.70;;;6.65;;
30458;SDS011;17254;50.976;7.034;2023-02-28T00:03:26;8.23;;;6.63;;
30458;SDS011;17254;50.976;7.034;2023-02-28T00:03:32;7.37;;;6.57;;
30458;SDS011;17254;50.976;7.034;2023-02-28T00:03:40;6.97;;;6.23;;
30458;SDS011;17254;50.976;7.034;2023-02-28T00:03:46;6.63;;;5.93;;
30458;SDS011;17254;50.976;7.034;2023-02-28T00:03:52;6.97;;;6.07;;
30458;SDS011;17254;50.976;7.034;2023-02-28T00:03:57;7.10;;;6.17;;
30458;SDS011;17254;50.976;7.034;2023-02-28T00:04:03;7.47;;;6.20;;
30458;SDS011;17254;50.976;7.034;2023-02-28T00:04:09;7.70;;;6.30;;
30458;SDS011;17254;50.976;7.034;2023-02-28T00:04:15;7.80;;;6.43;;
30458;SDS011;17254;50.976;7.034;2023-02-28T00:04:21;11.07;;;6.32;;
30458;SDS011;17254;50.976;7.034;2023-02-28T00:04:27;11.38;;;6.35;;
30458;SDS011;17254;50.976;7.034;2023-02-28T00:04:33;11.63;;;6.32;;
30458;SDS011;17254;50.976;7.034;2023-02-28T00:04:39;12.05;;;6.40;;
30458;SDS011;17254;50.976;7.034;2023-02-28T00:04:46;11.37;;;6.30;;
30458;SDS011;17254;50.976;7.034;2023-02-28T00:05:09;7.68;;;6.10;;
30458;SDS011;17254;50.976;7.034;2023-02-28T00:05:17;7.10;;;6.03;;
30458;SDS011;17254;50.976;7.034;2023-02-28T00:05:25;7.50;;;6.20;;
30458;SDS011;17254;50.976;7.034;2023-02-28T00:05:32;7.60;;;6.38;;
30458;SDS011;17254;50.976;7.034;2023-02-28T00:05:38;7.27;;;6.23;;
30458;SDS011;17254;50.976;7.034;2023-02-28T00:05:44;7.23;;;6.27;;
30458;SDS011;17254;50.976;7.034;2023-02-28T00:05:50;7.22;;;6.32;;
30458;SDS011;17254;50.976;7.034;2023-02-28T00:05:56;6.80;;;6.20;;
30458;SDS011;17254;50.976;7.034;2023-02-28T00:06:04;6.75;;;6.15;;
30458;SDS011;17254;50.976;7.034;2023-02-28T00:06:12;6.89;;;6.29;;
30458;SDS011;17254;50.976;7.034;2023-02-28T00:06:18;6.80;;;6.13;;
30458;SDS011;17254;50.976;7.034;2023-02-28T00:06:26;6.88;;;6.18;;
30458;SDS011;17254;50.976;7.034;2023-02-28T00:06:32;6.90;;;6.20;;
30458;SDS011;17254;50.976;7.034;2023-02-28T00:06:38;6.75;;;6.05;;
30458;SDS011;17254;50.976;7.034;2023-02-28T00:06:44;6.68;;;6.00;;
30458;SDS011;17254;50.976;7.034;2023-02-28T00:06:49;6.55;;;5.95;;
30458;SDS011;17254;50.976;7.034;2023-02-28T00:06:55;6.25;;;5.65;;
30458;SDS011;17254;50.976;7.034;2023-02-28T00:07:01;6.17;;;5.57;;
30458;SDS011;17254;50.976;7.034;2023-02-28T00:07:07;6.50;;;5.68;;
30458;SDS011;17254;50.976;7.034;2023-02-28T00:07:13;7.05;;;5.65;;
30458;SDS011;17254;50.976;7.034;2023-02-28T00:07:19;7.03;;;5.70;;
30458;SDS011;17254;50.976;7.034;2023-02-28T00:07:25;6.97;;;5.75;;
30458;SDS011;17254;50.976;7.034;2023-02-28T00:07:31;7.03;;;5.93;;
30458;SDS011;17254;50.976;7.034;2023-02-28T00:07:37;6.88;;;5.95;;
30458;SDS011;17254;50.976;7.034;2023-02-28T00:07:44;6.60;;;5.94;;
30458;SDS011;17254;50.976;7.034;2023-02-28T00:07:50;6.60;;;6.00;;
30458;SDS011;17254;50.976;7.034;2023-02-28T00:07:56;6.80;;;6.13;;
30458;SDS011;17254;50.976;7.034;2023-02-28T00:08:03;6.72;;;6.03;;
30458;SDS011;17254;50.976;7.034;2023-02-28T00:08:09;6.66;;;5.98;;
30458;SDS011;17254;50.976;7.034;2023-02-28T00:08:15;6.80;;;6.10;;
30458;SDS011;17254;50.976;7.034;2023-02-28T00:08:21;6.78;;;6.07;;
30458;SDS011;17254;50.976;7.034;2023-02-28T00:08:27;6.55;;;5.95;;
30458;SDS011;17254;50.976;7.034;2023-02-28T00:08:33;6.68;;;6.07;;
30458;SDS011;17254;50.976;7.034;2023-02-28T00:08:39;6.65;;;6.05;;
30458;SDS011;17254;50.976;7.034;2023-02-28T00:08:46;6.70;;;6.10;;
30458;SDS011;17254;50.976;7.034;2023-02-28T00:08:52;6.70;;;6.10;;
30458;SDS011;17254;50.976;7.034;2023-02-28T00:08:58;6.70;;;6.03;;
30458;SDS011;17254;50.976;7.034;2023-02-28T00:09:04;6.68;;;5.97;;
30458;SDS011;17254;50.976;7.034;2023-02-28T00:09:10;6.65;;;5.95;;
30458;SDS011;17254;50.976;7.034;2023-02-28T00:09:16;7.15;;;5.80;;
30458;SDS011;17254;50.976;7.034;2023-02-28T00:09:22;7.72;;;5.88;;
30458;SDS011;17254;50.976;7.034;2023-02-28T00:09:28;7.57;;;6.00;;
30458;SDS011;17254;50.976;7.034;2023-02-28T00:09:34;7.30;;;5.97;;
30458;SDS011;17254;50.976;7.034;2023-02-28T00:09:39;8.73;;;6.05;;
30458;SDS011;17254;50.976;7.034;2023-02-28T00:09:45;9.13;;;6.20;;
30458;SDS011;17254;50.976;7.034;2023-02-28T00:09:51;9.07;;;6.30;;
30458;SDS011;17254;50.976;7.034;2023-02-28T00:09:57;9.02;;;6.22;;
30458;SDS011;17254;50.976;7.034;2023-02-28T00:10:04;9.27;;;6.20;;
30458;SDS011;17254;50.976;7.034;2023-02-28T00:10:14;8.20;;;6.23;;
30458;SDS011;17254;50.976;7.034;2023-02-28T00:10:24;7.17;;;6.36;;
30458;SDS011;17254;50.976;7.034;2023-02-28T00:10:31;7.80;;;6.50;;
30458;SDS011;17254;50.976;7.034;2023-02-28T00:10:37;7.47;;;6.32;;
30458;SDS011;17254;50.976;7.034;2023-02-28T00:10:43;7.70;;;6.22;;
30458;SDS011;17254;50.976;7.034;2023-02-28T00:10:49;7.75;;;6.03;;
30458;SDS011;17254;50.976;7.034;2023-02-28T00:10:55;7.82;;;5.97;;
30458;SDS011;17254;50.976;7.034;2023-02-28T00:11:01;7.43;;;6.07;;
30458;SDS011;17254;50.976;7.034;2023-02-28T00:11:09;7.35;;;6.25;;
30458;SDS011;17254;50.976;7.034;2023-02-28T00:11:16;7.24;;;6.27;;
30458;SDS011;17254;50.976;7.034;2023-02-28T00:11:23;7.40;;;6.45;;
30458;SDS011;17254;50.976;7.034;2023-02-28T00:11:29;7.18;;;6.40;;
30458;SDS011;17254;50.976;7.034;2023-02-28T00:11:35;7.72;;;6.97;;
30458;SDS011;17254;50.976;7.034;2023-02-28T00:11:42;8.15;;;7.02;;
30458;SDS011;17254;50.976;7.034;2023-02-28T00:11:48;8.85;;;7.10;;
30458;SDS011;17254;50.976;7.034;2023-02-28T00:11:54;8.82;;;6.95;;
30458;SDS011;17254;50.976;7.034;2023-02-28T00:12:00;8.77;;;6.83;;
30458;SDS011;17254;50.976;7.034;2023-02-28T00:12:17;7.91;;;6.15;;
30458;SDS011;17254;50.976;7.034;2023-02-28T00:12:23;7.13;;;6.20;;
30458;SDS011;17254;50.976;7.034;2023-02-28T00:12:29;7.07;;;6.20;;
30458;SDS011;17254;50.976;7.034;2023-02-28T00:12:35;7.68;;;6.30;;
30458;SDS011;17254;50.976;7.034;2023-02-28T00:12:42;7.93;;;6.77;;
30458;SDS011;17254;50.976;7.034;2023-02-28T00:12:48;7.83;;;6.60;;
30458;SDS011;17254;50.976;7.034;2023-02-28T00:12:55;7.78;;;6.50;;
30458;SDS011;17254;50.976;7.034;2023-02-28T00:13:05;8.20;;;6.59;;
30458;SDS011;17254;50.976;7.034;2023-02-28T00:13:13;7.94;;;6.23;;
30458;SDS011;17254;50.976;7.034;2023-02-28T00:13:19;7.50;;;6.00;;
30458;SDS011;17254;50.976;7.034;2023-02-28T00:13:25;7.70;;;5.97;;
30458;SDS011;17254;50.976;7.034;2023-02-28T00:13:31;7.00;;;6.00;;
30458;SDS011;17254;50.976;7.034;2023-02-28T00:13:39;6.75;;;5.98;;
30458;SDS011;17254;50.976;7.034;2023-02-28T00:13:47;6.70;;;6.03;;
30458;SDS011;17254;50.976;7.034;2023-02-28T00:13:53;6.73;;;6.07;;
30458;SDS011;17254;50.976;7.034;2023-02-28T00:13:59;6.73;;;6.03;;
30458;SDS011;17254;50.976;7.034;2023-02-28T00:14:06;6.76;;;6.06;;
30458;SDS011;17254;50.976;7.034;2023-02-28T00:14:11;6.60;;;5.77;;
30458;SDS011;17254;50.976;7.034;2023-02-28T00:14:17;6.68;;;5.75;;
30458;SDS011;17254;50.976;7.034;2023-02-28T00:14:24;6.64;;;5.66;;
30458;SDS011;17254;50.976;7.034;2023-02-28T00:14:30;6.50;;;5.55;;
30458;SDS011;17254;50.976;7.034;2023-02-28T00:14:36;6.75;;;5.63;;
30458;SDS011;17254;50.976;7.034;2023-02-28T00:14:42;6.78;;;5.88;;
30458;SDS011;17254;50.976;7.034;2023-02-28T00:14:48;6.55;;;5.80;;
30458;SDS011;17254;50.976;7.034;2023-02-28T00:14:54;6.63;;;5.90;;
30458;SDS011;17254;50.976;7.034;2023-02-28T00:15:00;6.90;;;5.90;;
30458;SDS011;17254;50.976;7.034;2023-02-28T00:15:09;6.57;;;5.70;;
30458;SDS011;17254;50.976;7.034;2023-02-28T00:15:16;6.40;;;5.60;;
30458;SDS011;17254;50.976;7.034;2023-02-28T00:15:22;6.33;;;5.60;;
30458;SDS011;17254;50.976;7.034;2023-02-28T00:15:28;6.20;;;5.60;;
30458;SDS011;17254;50.976;7.034;2023-02-28T00:15:34;6.30;;;5.70;;
30458;SDS011;17254;50.976;7.034;2023-02-28T00:15:40;6.70;;;6.03;;
30458;SDS011;17254;50.976;7.034;2023-02-28T00:15:46;6.57;;;5.97;;
30458;SDS011;17254;50.976;7.034;2023-02-28T00:15:59;6.95;;;6.25;;
30458;SDS011;17254;50.976;7.034;2023-02-28T00:16:07;7.13;;;6.40;;
30458;SDS011;17254;50.976;7.034;2023-02-28T00:16:15;7.13;;;6.30;;
30458;SDS011;17254;50.976;7.034;2023-02-28T00:16:23;7.10;;;6.20;;
30458;SDS011;17254;50.976;7.034;2023-02-28T00:16:29;6.95;;;6.22;;
30458;SDS011;17254;50.976;7.034;2023-02-28T00:16:35;7.32;;;6.30;;
30458;SDS011;17254;50.976;7.034;2023-02-28T00:16:40;7.40;;;6.22;;
30458;SDS011;17254;50.976;7.034;2023-02-28T00:16:46;6.93;;;6.13;;
30458;SDS011;17254;50.976;7.034;2023-02-28T00:16:52;6.77;;;6.07;;
30458;SDS011;17254;50.976;7.034;2023-02-28T00:16:59;6.40;;;5.78;;
30458;SDS011;17254;50.976;7.034;2023-02-28T00:17:05;6.20;;;5.68;;
30458;SDS011;17254;50.976;7.034;2023-02-28T00:17:11;6.32;;;5.72;;
30458;SDS011;17254;50.976;7.034;2023-02-28T00:17:17;6.53;;;5.85;;
30458;SDS011;17254;50.976;7.034;2023-02-28T00:17:26;6.67;;;5.97;;
30458;SDS011;17254;50.976;7.034;2023-02-28T00:17:31;6.83;;;6.13;;
30458;SDS011;17254;50.976;7.034;2023-02-28T00:17:37;6.70;;;6.05;;
30458;SDS011;17254;50.976;7.034;2023-02-28T00:17:44;6.68;;;6.07;;
30458;SDS011;17254;50.976;7.034;2023-02-28T00:17:51;6.53;;;5.93;;
30458;SDS011;17254;50.976;7.034;2023-02-28T00:17:57;6.37;;;5.77;;
30458;SDS011;17254;50.976;7.034;2023-02-28T00:18:03;6.40;;;5.80;;
30458;SDS011;17254;50.976;7.034;2023-02-28T00:18:09;7.47;;;5.90;;
30458;SDS011;17254;50.976;7.034;2023-02-28T00:18:15;7.38;;;5.80;;
30458;SDS011;17254;50.976;7.034;2023-02-28T00:18:21;7.65;;;5.85;;
30458;SDS011;17254;50.976;7.034;2023-02-28T00:18:27;7.42;;;5.90;;
30458;SDS011;17254;50.976;7.034;2023-02-28T00:18:33;7.50;;;5.78;;
30458;SDS011;17254;50.976;7.034;2023-02-28T00:18:39;6.33;;;5.70;;
30458;SDS011;17254;50.976;7.034;2023-02-28T00:18:46;6.60;;;5.80;;
30458;SDS011;17254;50.976;7.034;2023-02-28T00:18:52;6.47;;;5.50;;
30458;SDS011;17254;50.976;7.034;2023-02-28T00:18:58;6.53;;;5.47;;
30458;SDS011;17254;50.976;7.034;2023-02-28T00:19:04;7.30;;;5.63;;
30458;SDS011;17254;50.976;7.034;2023-02-28T00:19:10;7.55;;;5.60;;
30458;SDS011;17254;50.976;7.034;2023-02-28T00:19:18;7.17;;;5.72;;
30458;SDS011;17254;50.976;7.034;2023-02-28T00:19:25;7.06;;;5.94;;
30458;SDS011;17254;50.976;7.034;2023-02-28T00:19:31;6.83;;;6.07;;
30458;SDS011;17254;50.976;7.034;2023-02-28T00:19:37;6.80;;;6.10;;
30458;SDS011;17254;50.976;7.034;2023-02-28T00:19:43;6.90;;;6.20;;
30458;SDS011;17254;50.976;7.034;2023-02-28T00:19:49;6.95;;;6.25;;
30458;SDS011;17254;50.976;7.034;2023-02-28T00:19:55;7.20;;;6.33;;
30458;SDS011;17254;50.976;7.034;2023-02-28T00:20:02;7.10;;;6.28;;
30458;SDS011;17254;50.976;7.034;2023-02-28T00:20:12;6.78;;;6.09;;
30458;SDS011;17254;50.976;7.034;2023-02-28T00:20:19;6.93;;;6.17;;
30458;SDS011;17254;50.976;7.034;2023-02-28T00:20:25;7.07;;;6.15;;
30458;SDS011;17254;50.976;7.034;2023-02-28T00:20:31;7.54;;;6.18;;
30458;SDS011;17254;50.976;7.034;2023-02-28T00:20:38;7.53;;;6.20;;
30458;SDS011;17254;50.976;7.034;2023-02-28T00:20:44;7.87;;;6.33;;
30458;SDS011;17254;50.976;7.034;2023-02-28T00:20:50;7.13;;;6.03;;
30458;SDS011;17254;50.976;7.034;2023-02-28T00:20:56;6.78;;;6.00;;
30458;SDS011;17254;50.976;7.034;2023-02-28T00:21:02;6.50;;;5.82;;
30458;SDS011;17254;50.976;7.034;2023-02-28T00:21:09;7.30;;;5.77;;
30458;SDS011;17254;50.976;7.034;2023-02-28T00:21:15;7.00;;;5.70;;
30458;SDS011;17254;50.976;7.034;2023-02-28T00:21:22;7.20;;;5.86;;
30458;SDS011;17254;50.976;7.034;2023-02-28T00:21:27;7.95;;;5.88;;
30458;SDS011;17254;50.976;7.034;2023-02-28T00:21:33;7.65;;;6.18;;
30458;SDS011;17254;50.976;7.034;2023-02-28T00:21:40;7.14;;;6.30;;
30458;SDS011;17254;50.976;7.034;2023-02-28T00:21:46;7.00;;;6.30;;
30458;SDS011;17254;50.976;7.034;2023-02-28T00:21:53;7.04;;;6.26;;
30458;SDS011;17254;50.976;7.034;2023-02-28T00:21:59;7.20;;;6.40;;
30458;SDS011;17254;50.976;7.034;2023-02-28T00:22:05;7.72;;;6.32;;
30458;SDS011;17254;50.976;7.034;2023-02-28T00:22:11;7.40;;;6.33;;
30458;SDS011;17254;50.976;7.034;2023-02-28T00:22:18;7.72;;;6.35;;
30458;SDS011;17254;50.976;7.034;2023-02-28T00:22:27;6.85;;;6.04;;
30458;SDS011;17254;50.976;7.034;2023-02-28T00:22:33;6.40;;;5.78;;
30458;SDS011;17254;50.976;7.034;2023-02-28T00:22:40;6.20;;;5.57;;
30458;SDS011;17254;50.976;7.034;2023-02-28T00:22:48;6.17;;;5.57;;
30458;SDS011;17254;50.976;7.034;2023-02-28T00:22:55;6.40;;;5.80;;
30458;SDS011;17254;50.976;7.034;2023-02-28T00:23:01;6.43;;;5.82;;
30458;SDS011;17254;50.976;7.034;2023-02-28T00:23:07;6.50;;;5.90;;
30458;SDS011;17254;50.976;7.034;2023-02-28T00:23:14;6.58;;;5.98;;
30458;SDS011;17254;50.976;7.034;2023-02-28T00:23:20;6.53;;;5.93;;
30458;SDS011;17254;50.976;7.034;2023-02-28T00:23:27;6.60;;;5.93;;
30458;SDS011;17254;50.976;7.034;2023-02-28T00:23:33;6.63;;;5.93;;
30458;SDS011;17254;50.976;7.034;2023-02-28T00:23:39;6.53;;;5.82;;
30458;SDS011;17254;50.976;7.034;2023-02-28T00:23:45;6.30;;;5.65;;
30458;SDS011;17254;50.976;7.034;2023-02-28T00:23:51;6.27;;;5.67;;
30458;SDS011;17254;50.976;7.034;2023-02-28T00:23:57;6.20;;;5.60;;
30458;SDS011;17254;50.976;7.034;2023-02-28T00:24:03;6.30;;;5.70;;
30458;SDS011;17254;50.976;7.034;2023-02-28T00:24:09;6.83;;;5.80;;
30458;SDS011;17254;50.976;7.034;2023-02-28T00:24:15;7.13;;;6.00;;
30458;SDS011;17254;50.976;7.034;2023-02-28T00:24:21;7.10;;;5.95;;
30458;SDS011;17254;50.976;7.034;2023-02-28T00:24:27;7.07;;;5.97;;
30458;SDS011;17254;50.976;7.034;2023-02-28T00:24:33;7.25;;;5.97;;
30458;SDS011;17254;50.976;7.034;2023-02-28T00:24:39;7.14;;;5.98;;
30458;SDS011;17254;50.976;7.034;2023-02-28T00:24:46;6.95;;;5.88;;
30458;SDS011;17254;50.976;7.034;2023-02-28T00:24:52;6.97;;;5.97;;
30458;SDS011;17254;50.976;7.034;2023-02-28T00:24:58;7.45;;;6.05;;
30458;SDS011;17254;50.976;7.034;2023-02-28T00:25:04;7.18;;;5.97;;
30458;SDS011;17254;50.976;7.034;2023-02-28T00:25:12;7.07;;;6.17;;
30458;SDS011;17254;50.976;7.034;2023-02-28T00:25:21;7.53;;;6.30;;
30458;SDS011;17254;50.976;7.034;2023-02-28T00:25:29;7.50;;;6.30;;
30458;SDS011;17254;50.976;7.034;2023-02-28T00:25:35;7.57;;;6.30;;
30458;SDS011;17254;50.976;7.034;2023-02-28T00:25:41;7.33;;;6.10;;
30458;SDS011;17254;50.976;7.034;2023-02-28T00:25:47;7.28;;;6.03;;
30458;SDS011;17254;50.976;7.034;2023-02-28T00:25:54;6.63;;;5.90;;
30458;SDS011;17254;50.976;7.034;2023-02-28T00:26:00;6.73;;;5.70;;
30458;SDS011;17254;50.976;7.034;2023-02-28T00:26:06;7.50;;;5.75;;
30458;SDS011;17254;50.976;7.034;2023-02-28T00:26:12;8.27;;;5.78;;
30458;SDS011;17254;50.976;7.034;2023-02-28T00:26:22;8.75;;;5.71;;
30458;SDS011;17254;50.976;7.034;2023-02-28T00:26:28;9.13;;;6.00;;
30458;SDS011;17254;50.976;7.034;2023-02-28T00:26:34;8.67;;;5.97;;
30458;SDS011;17254;50.976;7.034;2023-02-28T00:26:40;7.65;;;5.93;;
30458;SDS011;17254;50.976;7.034;2023-02-28T00:26:46;6.93;;;5.80;;
30458;SDS011;17254;50.976;7.034;2023-02-28T00:26:52;6.53;;;5.90;;
30458;SDS011;17254;50.976;7.034;2023-02-28T00:26:58;6.47;;;5.80;;
30458;SDS011;17254;50.976;7.034;2023-02-28T00:27:04;6.50;;;5.82;;
30458;SDS011;17254;50.976;7.034;2023-02-28T00:27:11;7.17;;;5.83;;
30458;SDS011;17254;50.976;7.034;2023-02-28T00:27:17;8.25;;;5.97;;
30458;SDS011;17254;50.976;7.034;2023-02-28T00:27:25;10.40;;;6.10;;
30458;SDS011;17254;50.976;7.034;2023-02-28T00:27:31;11.35;;;6.30;;
30458;SDS011;17254;50.976;7.034;2023-02-28T00:27:37;12.27;;;6.47;;
30458;SDS011;17254;50.976;7.034;2023-02-28T00:27:44;11.78;;;6.57;;
30458;SDS011;17254;50.976;7.034;2023-02-28T00:27:51;10.80;;;6.37;;
30458;SDS011;17254;50.976;7.034;2023-02-28T00:27:57;8.93;;;6.35;;
30458;SDS011;17254;50.976;7.034;2023-02-28T00:28:02;8.05;;;6.40;;
30458;SDS011;17254;50.976;7.034;2023-02-28T00:28:11;6.98;;;6.07;;
30458;SDS011;17254;50.976;7.034;2023-02-28T00:28:17;6.75;;;6.05;;
30458;SDS011;17254;50.976;7.034;2023-02-28T00:28:23;6.78;;;6.00;;
30458;SDS011;17254;50.976;7.034;2023-02-28T00:28:33;6.88;;;5.85;;
30458;SDS011;17254;50.976;7.034;2023-02-28T00:28:40;7.74;;;6.00;;
30458;SDS011;17254;50.976;7.034;2023-02-28T00:28:45;8.23;;;5.95;;
30458;SDS011;17254;50.976;7.034;2023-02-28T00:28:52;8.23;;;6.00;;
30458;SDS011;17254;50.976;7.034;2023-02-28T00:28:58;8.80;;;6.07;;
30458;SDS011;17254;50.976;7.034;2023-02-28T00:29:04;8.90;;;6.20;;
30458;SDS011;17254;50.976;7.034;2023-02-28T00:29:10;8.20;;;6.00;;
30458;SDS011;17254;50.976;7.034;2023-02-28T00:29:16;7.47;;;5.97;;
30458;SDS011;17254;50.976;7.034;2023-02-28T00:29:23;6.90;;;5.80;;
30458;SDS011;17254;50.976;7.034;2023-02-28T00:29:30;7.27;;;5.70;;
30458;SDS011;17254;50.976;7.034;2023-02-28T00:29:36;6.60;;;5.60;;
30458;SDS011;17254;50.976;7.034;2023-02-28T00:29:42;6.90;;;5.63;;
30458;SDS011;17254;50.976;7.034;2023-02-28T00:29:49;7.08;;;5.64;;
30458;SDS011;17254;50.976;7.034;2023-02-28T00:29:55;6.50;;;5.57;;
30458;SDS011;17254;50.976;7.034;2023-02-28T00:30:01;6.63;;;5.47;;
30458;SDS011;17254;50.976;7.034;2023-02-28T00:30:09;6.67;;;5.48;;
30458;SDS011;17254;50.976;7.034;2023-02-28T00:30:18;6.67;;;5.63;;
30458;SDS011;17254;50.976;7.034;2023-02-28T00:30:26;6.67;;;5.78;;
30458;SDS011;17254;50.976;7.034;2023-02-28T00:30:32;6.30;;;5.70;;
30458;SDS011;17254;50.976;7.034;2023-02-28T00:30:38;6.30;;;5.70;;
30458;SDS011;17254;50.976;7.034;2023-02-28T00:30:44;6.10;;;5.50;;
30458;SDS011;17254;50.976;7.034;2023-02-28T00:30:50;5.90;;;5.27;;
30458;SDS011;17254;50.976;7.034;2023-02-28T00:30:56;6.22;;;5.20;;
30458;SDS011;17254;50.976;7.034;2023-02-28T00:31:02;6.65;;;5.30;;
30458;SDS011;17254;50.976;7.034;2023-02-28T00:31:09;7.15;;;5.40;;
30458;SDS011;17254;50.976;7.034;2023-02-28T00:31:15;6.93;;;5.60;;
30458;SDS011;17254;50.976;7.034;2023-02-28T00:31:21;6.78;;;5.72;;
30458;SDS011;17254;50.976;7.034;2023-02-28T00:31:28;6.70;;;5.78;;
30458;SDS011;17254;50.976;7.034;2023-02-28T00:31:34;6.38;;;5.68;;
30458;SDS011;17254;50.976;7.034;2023-02-28T00:31:39;6.50;;;5.72;;
30458;SDS011;17254;50.976;7.034;2023-02-28T00:31:45;6.88;;;5.70;;
30458;SDS011;17254;50.976;7.034;2023-02-28T00:31:51;6.70;;;5.60;;
30458;SDS011;17254;50.976;7.034;2023-02-28T00:31:57;6.38;;;5.60;;
30458;SDS011;17254;50.976;7.034;2023-02-28T00:32:04;6.43;;;5.57;;
30458;SDS011;17254;50.976;7.034;2023-02-28T00:32:11;5.92;;;5.22;;
30458;SDS011;17254;50.976;7.034;2023-02-28T00:32:17;5.80;;;5.10;;
30458;SDS011;17254;50.976;7.034;2023-02-28T00:32:24;5.80;;;5.07;;
30458;SDS011;17254;50.976;7.034;2023-02-28T00:32:30;6.83;;;5.10;;
30458;SDS011;17254;50.976;7.034;2023-02-28T00:32:35;7.38;;;5.13;;
30458;SDS011;17254;50.976;7.034;2023-02-28T00:32:42;7.83;;;5.30;;
30458;SDS011;17254;50.976;7.034;2023-02-28T00:32:48;7.87;;;5.30;;
30458;SDS011;17254;50.976;7.034;2023-02-28T00:32:56;7.87;;;5.43;;
30458;SDS011;17254;50.976;7.034;2023-02-28T00:33:04;6.65;;;5.55;;
30458;SDS011;17254;50.976;7.034;2023-02-28T00:33:10;6.43;;;5.68;;
30458;SDS011;17254;50.976;7.034;2023-02-28T00:33:16;6.27;;;5.67;;
30458;SDS011;17254;50.976;7.034;2023-02-28T00:33:22;6.38;;;5.78;;
30458;SDS011;17254;50.976;7.034;2023-02-28T00:33:28;6.40;;;5.80;;
30458;SDS011;17254;50.976;7.034;2023-02-28T00:33:34;6.50;;;5.90;;
30458;SDS011;17254;50.976;7.034;2023-02-28T00:33:40;6.63;;;5.85;;
30458;SDS011;17254;50.976;7.034;2023-02-28T00:33:46;6.97;;;5.82;;
30458;SDS011;17254;50.976;7.034;2023-02-28T00:33:53;7.34;;;6.00;;
30458;SDS011;17254;50.976;7.034;2023-02-28T00:33:59;7.65;;;5.97;;
30458;SDS011;17254;50.976;7.034;2023-02-28T00:34:06;7.55;;;5.80;;
30458;SDS011;17254;50.976;7.034;2023-02-28T00:34:11;7.15;;;5.85;;
30458;SDS011;17254;50.976;7.034;2023-02-28T00:34:17;6.63;;;5.93;;
30458;SDS011;17254;50.976;7.034;2023-02-28T00:34:23;6.38;;;5.78;;
30458;SDS011;17254;50.976;7.034;2023-02-28T00:34:31;6.38;;;5.78;;
30458;SDS011;17254;50.976;7.034;2023-02-28T00:34:42;6.31;;;5.71;;
30458;SDS011;17254;50.976;7.034;2023-02-28T00:34:48;6.30;;;5.63;;
30458;SDS011;17254;50.976;7.034;2023-02-28T00:34:54;6.32;;;5.35;;
30458;SDS011;17254;50.976;7.034;2023-02-28T00:35:00;6.77;;;5.27;;
30458;SDS011;17254;50.976;7.034;2023-02-28T00:35:07;7.27;;;5.37;;
30458;SDS011;17254;50.976;7.034;2023-02-28T00:35:13;7.80;;;5.32;;
30458;SDS011;17254;50.976;7.034;2023-02-28T00:35:20;7.30;;;5.17;;
30458;SDS011;17254;50.976;7.034;2023-02-28T00:35:26;7.20;;;5.28;;
30458;SDS011;17254;50.976;7.034;2023-02-28T00:35:32;6.72;;;5.43;;
30458;SDS011;17254;50.976;7.034;2023-02-28T00:35:38;6.68;;;5.40;;
30458;SDS011;17254;50.976;7.034;2023-02-28T00:35:44;6.20;;;5.43;;
30458;SDS011;17254;50.976;7.034;2023-02-28T00:35:51;7.08;;;5.77;;
30458;SDS011;17254;50.976;7.034;2023-02-28T00:36:05;7.54;;;5.78;;
30458;SDS011;17254;50.976;7.034;2023-02-28T00:36:14;7.60;;;5.47;;
30458;SDS011;17254;50.976;7.034;2023-02-28T00:36:20;6.13;;;5.20;;
30458;SDS011;17254;50.976;7.034;2023-02-28T00:36:26;5.82;;;5.10;;
30458;SDS011;17254;50.976;7.034;2023-02-28T00:36:32;5.80;;;5.30;;
30458;SDS011;17254;50.976;7.034;2023-02-28T00:36:38;6.13;;;5.53;;
30458;SDS011;17254;50.976;7.034;2023-02-28T00:36:45;6.15;;;5.53;;
30458;SDS011;17254;50.976;7.034;2023-02-28T00:36:54;6.50;;;5.53;;
30458;SDS011;17254;50.976;7.034;2023-02-28T00:36:59;6.78;;;5.45;;
30458;SDS011;17254;50.976;7.034;2023-02-28T00:37:06;6.60;;;5.60;;
30458;SDS011;17254;50.976;7.034;2023-02-28T00:37:13;6.63;;;5.40;;
30458;SDS011;17254;50.976;7.034;2023-02-28T00:37:19;6.43;;;5.40;;
30458;SDS011;17254;50.976;7.034;2023-02-28T00:37:24;6.05;;;5.40;;
30458;SDS011;17254;50.976;7.034;2023-02-28T00:37:32;6.08;;;5.48;;
30458;SDS011;17254;50.976;7.034;2023-02-28T00:37:38;6.03;;;5.37;;
30458;SDS011;17254;50.976;7.034;2023-02-28T00:37:44;6.24;;;5.62;;
30458;SDS011;17254;50.976;7.034;2023-02-28T00:37:53;6.65;;;5.78;;
30458;SDS011;17254;50.976;7.034;2023-02-28T00:37:58;6.90;;;5.70;;
30458;SDS011;17254;50.976;7.034;2023-02-28T00:38:06;7.34;;;5.70;;
30458;SDS011;17254;50.976;7.034;2023-02-28T00:38:14;6.77;;;5.63;;
30458;SDS011;17254;50.976;7.034;2023-02-28T00:38:20;7.25;;;5.65;;
30458;SDS011;17254;50.976;7.034;2023-02-28T00:38:26;7.13;;;5.78;;
30458;SDS011;17254;50.976;7.034;2023-02-28T00:38:32;6.78;;;5.70;;
30458;SDS011;17254;50.976;7.034;2023-02-28T00:38:40;7.60;;;5.80;;
30458;SDS011;17254;50.976;7.034;2023-02-28T00:38:46;7.52;;;5.68;;
30458;SDS011;17254;50.976;7.034;2023-02-28T00:38:52;6.70;;;5.72;;
30458;SDS011;17254;50.976;7.034;2023-02-28T00:38:58;7.20;;;5.70;;
30458;SDS011;17254;50.976;7.034;2023-02-28T00:39:06;6.65;;;5.85;;
30458;SDS011;17254;50.976;7.034;2023-02-28T00:39:12;6.63;;;5.97;;
30458;SDS011;17254;50.976;7.034;2023-02-28T00:39:18;6.80;;;6.00;;
30458;SDS011;17254;50.976;7.034;2023-02-28T00:39:24;6.40;;;5.65;;
30458;SDS011;17254;50.976;7.034;2023-02-28T00:39:30;6.18;;;5.55;;
30458;SDS011;17254;50.976;7.034;2023-02-28T00:39:36;6.20;;;5.53;;
30458;SDS011;17254;50.976;7.034;2023-02-28T00:39:43;6.46;;;5.56;;